Time;durP1;ratioP1;P1;durP2;ratioP2;P2;SDS_P1;SDS_P2;PMS_P1;PMS_P2;Temp;Humidity;BMP_temperature;BMP_pressure;BME280_temperature;BME280_humidity;BME280_pressure;Samples;Min_cycle;Max_cycle;Signal;HPM_P1;HPM_P2
2023/10/30 00:01:56;;;;;;;4.70;3.10;;;10.10;73.40;;;;;;5094192;28;20189;-75
2023/10/30 00:04:24;;;;;;;10.13;4.40;;;10.10;74.00;;;;;;5093827;28;20194;-74
2023/10/30 00:06:51;;;;;;;9.88;3.72;;;10.10;74.80;;;;;;5093907;28;20213;-75
2023/10/30 00:09:18;;;;;;;5.53;3.40;;;10.10;74.40;;;;;;5093849;28;20254;-75
2023/10/30 00:11:46;;;;;;;5.93;3.50;;;10.10;74.20;;;;;;5094054;28;20277;-74
2023/10/30 00:14:15;;;;;;;6.57;4.53;;;10.00;74.60;;;;;;5094295;28;20243;-74
2023/10/30 00:16:43;;;;;;;6.75;5.25;;;10.00;75.20;;;;;;5094114;28;20197;-74
2023/10/30 00:19:10;;;;;;;7.53;4.93;;;10.00;75.30;;;;;;5093617;28;20239;-74
2023/10/30 00:21:38;;;;;;;6.70;4.90;;;9.90;76.00;;;;;;5093732;28;20660;-74
2023/10/30 00:24:12;;;;;;;5.57;4.53;;;9.80;76.00;;;;;;5093700;28;20529;-75
2023/10/30 00:26:40;;;;;;;5.68;4.80;;;9.80;76.30;;;;;;5093451;28;20204;-74
2023/10/30 00:29:07;;;;;;;5.80;4.20;;;9.80;76.10;;;;;;5093658;28;20288;-74
2023/10/30 00:31:34;;;;;;;8.13;3.90;;;9.70;75.90;;;;;;5093455;28;20235;-74
2023/10/30 00:34:01;;;;;;;5.63;3.92;;;9.70;75.70;;;;;;5093727;28;20280;-74
2023/10/30 00:36:28;;;;;;;6.03;4.40;;;9.60;75.30;;;;;;5093886;28;20189;-74
2023/10/30 00:38:56;;;;;;;9.57;4.32;;;9.60;75.70;;;;;;5093757;28;20272;-74
2023/10/30 00:41:25;;;;;;;6.88;4.35;;;9.60;76.20;;;;;;5092996;28;20636;-74
2023/10/30 00:43:52;;;;;;;11.23;4.45;;;9.50;75.60;;;;;;5094051;28;20220;-74
2023/10/30 00:46:19;;;;;;;7.63;4.18;;;9.50;76.20;;;;;;5093412;28;20209;-74
2023/10/30 00:48:46;;;;;;;7.13;4.85;;;9.40;77.10;;;;;;5093743;28;20193;-74
2023/10/30 00:51:15;;;;;;;5.68;4.13;;;9.40;77.00;;;;;;5093735;28;20193;-74
2023/10/30 00:53:42;;;;;;;7.40;4.50;;;9.40;77.10;;;;;;5093291;28;20186;-74
2023/10/30 00:56:11;;;;;;;7.13;5.15;;;9.40;77.30;;;;;;5093547;28;20220;-74
2023/10/30 00:58:38;;;;;;;8.98;3.33;;;9.40;76.30;;;;;;5093616;28;20294;-74
2023/10/30 01:01:05;;;;;;;8.20;5.20;;;9.30;75.80;;;;;;5093651;28;20250;-74
2023/10/30 01:03:32;;;;;;;6.55;3.85;;;9.30;76.20;;;;;;5093276;28;20193;-74
2023/10/30 01:06:00;;;;;;;7.32;4.53;;;9.30;77.40;;;;;;5093164;28;20247;-74
2023/10/30 01:08:30;;;;;;;7.05;3.60;;;9.30;76.40;;;;;;5093208;28;20278;-74
2023/10/30 01:10:57;;;;;;;8.73;4.03;;;9.20;76.70;;;;;;5093113;28;20656;-74
2023/10/30 01:13:26;;;;;;;6.53;3.97;;;9.10;77.50;;;;;;5093534;28;20247;-74
2023/10/30 01:15:53;;;;;;;7.00;3.53;;;9.10;77.80;;;;;;5093471;28;20282;-74
2023/10/30 01:18:20;;;;;;;10.27;4.75;;;9.00;77.40;;;;;;5093360;28;20731;-74
2023/10/30 01:20:49;;;;;;;9.82;3.75;;;9.00;78.80;;;;;;5092532;28;20768;-74
2023/10/30 01:23:18;;;;;;;7.28;3.65;;;9.00;79.40;;;;;;5093405;28;20532;-74
2023/10/30 01:25:47;;;;;;;5.88;3.33;;;8.90;79.10;;;;;;5093362;28;20602;-74
2023/10/30 01:28:14;;;;;;;5.13;3.72;;;8.80;79.30;;;;;;5093289;28;20224;-74
2023/10/30 01:30:42;;;;;;;5.43;3.42;;;8.80;79.40;;;;;;5093426;28;20243;-74
2023/10/30 01:33:10;;;;;;;5.88;4.55;;;8.80;79.80;;;;;;5093004;28;20251;-74
2023/10/30 01:35:39;;;;;;;5.70;4.00;;;8.80;80.00;;;;;;5092970;28;20189;-74
2023/10/30 01:38:06;;;;;;;7.40;3.90;;;8.80;80.20;;;;;;5093336;28;20194;-75
2023/10/30 01:40:35;;;;;;;5.05;3.60;;;8.80;80.50;;;;;;5093154;28;20225;-74
2023/10/30 01:43:09;;;;;;;5.05;3.72;;;8.80;80.70;;;;;;5093179;28;20194;-74
2023/10/30 01:45:36;;;;;;;7.00;3.85;;;8.80;81.50;;;;;;5092953;28;20186;-74
2023/10/30 01:48:04;;;;;;;6.72;3.80;;;8.80;82.10;;;;;;5092616;28;20618;-74
2023/10/30 01:50:32;;;;;;;4.50;3.33;;;8.70;81.50;;;;;;5092844;28;20186;-74
2023/10/30 01:53:00;;;;;;;6.13;3.85;;;8.80;81.10;;;;;;5094967;28;20190;-74
2023/10/30 01:55:27;;;;;;;7.45;3.53;;;8.70;80.00;;;;;;5096221;28;20220;-74
2023/10/30 01:57:54;;;;;;;5.53;2.78;;;8.70;79.60;;;;;;5096386;28;20201;-74
2023/10/30 02:00:21;;;;;;;4.32;3.08;;;8.70;80.30;;;;;;5096461;28;20243;-74
2023/10/30 02:02:50;;;;;;;7.35;3.40;;;8.60;81.30;;;;;;5095911;28;20177;-74
2023/10/30 02:05:18;;;;;;;5.70;3.03;;;8.60;82.00;;;;;;5096246;28;20193;-74
2023/10/30 02:07:45;;;;;;;4.20;2.70;;;8.60;82.30;;;;;;5095937;28;20213;-74
2023/10/30 02:10:12;;;;;;;4.68;3.20;;;8.60;82.60;;;;;;5095757;28;20716;-75
2023/10/30 02:12:42;;;;;;;5.40;3.40;;;8.60;82.80;;;;;;5096216;28;20185;-74
2023/10/30 02:15:09;;;;;;;6.55;3.50;;;8.60;83.20;;;;;;5096583;28;20217;-74
2023/10/30 02:17:36;;;;;;;6.95;3.58;;;8.60;83.90;;;;;;5095470;28;20242;-74
2023/10/30 02:20:04;;;;;;;5.38;3.40;;;8.60;84.70;;;;;;5095897;28;20263;-74
2023/10/30 02:22:32;;;;;;;5.60;3.70;;;8.60;84.70;;;;;;5095853;28;20196;-74
2023/10/30 02:25:00;;;;;;;5.32;3.65;;;8.60;84.30;;;;;;5095751;28;20190;-74
2023/10/30 02:27:28;;;;;;;4.97;3.20;;;8.60;84.30;;;;;;5095797;28;20304;-74
2023/10/30 02:29:55;;;;;;;5.32;3.10;;;8.60;85.10;;;;;;5095701;28;20189;-75
2023/10/30 02:32:22;;;;;;;4.88;2.88;;;8.60;85.30;;;;;;5095376;28;20725;-74
2023/10/30 02:34:49;;;;;;;5.88;3.33;;;8.60;85.20;;;;;;5095785;28;20648;-74
2023/10/30 02:37:16;;;;;;;4.65;2.72;;;8.60;85.20;;;;;;5095866;28;20190;-74
2023/10/30 02:39:43;;;;;;;3.70;2.63;;;8.70;84.00;;;;;;5095418;28;20640;-75
2023/10/30 02:42:10;;;;;;;6.57;3.25;;;8.60;84.00;;;;;;5095430;28;20186;-74
2023/10/30 02:44:39;;;;;;;3.70;2.80;;;8.70;83.70;;;;;;5095389;28;20194;-75
2023/10/30 02:47:08;;;;;;;3.90;2.50;;;8.70;84.00;;;;;;5075431;28;20210;-74
2023/10/30 02:49:35;;;;;;;7.63;2.83;;;8.70;83.60;;;;;;5075088;28;20244;-74
2023/10/30 02:52:02;;;;;;;3.45;2.25;;;8.60;82.50;;;;;;5080289;28;20192;-74
2023/10/30 02:54:29;;;;;;;3.97;2.33;;;8.60;81.50;;;;;;5095526;28;20221;-74
2023/10/30 02:56:56;;;;;;;4.95;2.53;;;8.50;81.80;;;;;;5095531;28;20190;-74
2023/10/30 02:59:24;;;;;;;5.97;2.38;;;8.50;81.50;;;;;;5095250;28;20190;-74
2023/10/30 03:01:52;;;;;;;6.82;2.92;;;8.60;80.90;;;;;;5094774;28;20219;-74
2023/10/30 03:04:22;;;;;;;6.32;2.67;;;8.50;80.90;;;;;;5094834;28;20186;-74
2023/10/30 03:06:49;;;;;;;4.38;2.50;;;8.50;81.20;;;;;;5095102;28;20670;-74
2023/10/30 03:09:16;;;;;;;4.65;2.40;;;8.50;81.60;;;;;;5095220;28;20189;-75
2023/10/30 03:11:43;;;;;;;4.90;2.50;;;8.40;81.50;;;;;;5095155;28;20220;-74
2023/10/30 03:14:11;;;;;;;8.38;2.85;;;8.40;81.70;;;;;;5094603;28;20243;-74
2023/10/30 03:16:38;;;;;;;4.78;2.40;;;8.40;81.90;;;;;;5094766;28;20215;-74
2023/10/30 03:19:06;;;;;;;5.10;2.63;;;8.40;82.20;;;;;;5094877;28;20196;-74
2023/10/30 03:21:33;;;;;;;4.30;2.50;;;8.50;82.80;;;;;;5094806;28;20627;-75
2023/10/30 03:24:00;;;;;;;5.35;2.55;;;8.40;82.50;;;;;;5094623;28;20243;-74
2023/10/30 03:26:27;;;;;;;3.90;2.35;;;8.40;82.60;;;;;;5094878;28;20597;-75
2023/10/30 03:28:54;;;;;;;4.68;2.78;;;8.40;82.60;;;;;;5094395;28;20248;-74
2023/10/30 03:31:21;;;;;;;3.88;2.10;;;8.40;82.80;;;;;;5094825;28;20593;-74
2023/10/30 03:33:50;;;;;;;4.40;2.67;;;8.40;82.90;;;;;;5094796;28;20194;-75
2023/10/30 03:36:21;;;;;;;3.20;2.22;;;8.40;82.80;;;;;;5094746;28;20185;-74
2023/10/30 03:39:02;;;;;;;3.72;2.47;;;8.40;82.90;;;;;;5094569;28;20250;-74
2023/10/30 03:41:29;;;;;;;3.90;2.42;;;8.40;82.80;;;;;;5094528;28;20181;-74
2023/10/30 03:43:56;;;;;;;3.03;1.85;;;8.40;82.60;;;;;;5094562;28;20612;-75
2023/10/30 03:46:25;;;;;;;3.20;1.95;;;8.30;81.80;;;;;;5094644;28;20551;-74
2023/10/30 03:48:52;;;;;;;4.80;2.20;;;8.30;82.00;;;;;;5094464;28;20244;-75
2023/10/30 03:51:20;;;;;;;3.00;1.75;;;8.20;80.10;;;;;;5093807;28;20643;-75
2023/10/30 03:53:48;;;;;;;3.13;1.83;;;8.10;78.40;;;;;;5094735;28;20193;-74
2023/10/30 03:56:15;;;;;;;4.60;2.28;;;8.00;77.70;;;;;;5093986;28;20635;-74
2023/10/30 03:58:42;;;;;;;3.25;1.85;;;7.80;77.90;;;;;;5094036;28;20201;-74
2023/10/30 04:01:09;;;;;;;4.38;2.38;;;7.80;79.00;;;;;;5093960;28;20228;-74
2023/10/30 04:03:49;;;;;;;4.13;2.15;;;7.70;79.10;;;;;;5094274;28;20193;-74
2023/10/30 04:06:20;;;;;;;2.88;1.70;;;7.70;79.70;;;;;;5093646;28;20177;-74
2023/10/30 04:08:47;;;;;;;3.50;2.00;;;7.70;80.20;;;;;;5094171;28;20548;-74
2023/10/30 04:11:17;;;;;;;4.03;2.40;;;7.70;80.40;;;;;;5093486;28;20206;-74
2023/10/30 04:13:45;;;;;;;3.13;2.10;;;7.60;80.40;;;;;;5093862;28;20182;-74
2023/10/30 04:16:16;;;;;;;4.28;2.20;;;7.60;80.50;;;;;;5093035;28;20727;-74
2023/10/30 04:18:43;;;;;;;5.53;2.50;;;7.60;80.90;;;;;;5093526;28;20243;-75
2023/10/30 04:21:10;;;;;;;9.32;2.45;;;7.60;81.30;;;;;;5094470;28;20213;-74
2023/10/30 04:23:46;;;;;;;4.43;2.50;;;7.60;82.00;;;;;;5094068;28;20286;-74
2023/10/30 04:26:13;;;;;;;4.35;2.05;;;7.60;82.60;;;;;;5093929;28;20181;-75
2023/10/30 04:28:43;;;;;;;3.70;2.45;;;7.70;83.20;;;;;;5093836;28;20222;-74
2023/10/30 04:31:10;;;;;;;3.65;1.90;;;7.70;83.10;;;;;;5093638;28;20190;-74
2023/10/30 04:33:37;;;;;;;4.60;2.47;;;7.70;82.90;;;;;;5093297;28;20189;-74
2023/10/30 04:36:05;;;;;;;6.90;2.67;;;7.70;83.10;;;;;;5093059;28;20185;-74
2023/10/30 04:38:32;;;;;;;4.57;2.42;;;7.70;83.80;;;;;;5093848;28;20562;-74
2023/10/30 04:41:03;;;;;;;5.03;3.22;;;7.60;84.60;;;;;;5093714;28;20242;-74
2023/10/30 04:43:32;;;;;;;7.13;3.75;;;7.70;85.00;;;;;;5093485;28;20662;-74
2023/10/30 04:45:59;;;;;;;4.50;3.80;;;7.70;84.70;;;;;;5093732;28;20193;-74
2023/10/30 04:48:26;;;;;;;4.38;3.33;;;7.70;84.70;;;;;;5092633;28;21039;-75
2023/10/30 04:50:53;;;;;;;6.32;3.40;;;7.70;84.50;;;;;;5093179;28;20293;-75
2023/10/30 04:53:20;;;;;;;6.80;4.18;;;7.60;84.10;;;;;;5091221;28;20185;-74
2023/10/30 04:55:50;;;;;;;5.72;3.53;;;7.60;84.10;;;;;;5089292;28;20255;-75
2023/10/30 04:58:19;;;;;;;4.78;3.40;;;7.60;83.90;;;;;;5090511;28;20719;-74
2023/10/30 05:00:46;;;;;;;6.85;3.65;;;7.50;83.50;;;;;;5091684;28;20185;-74
2023/10/30 05:03:13;;;;;;;6.43;4.88;;;7.60;84.10;;;;;;5092712;28;20555;-75
2023/10/30 05:05:43;;;;;;;4.30;2.67;;;7.50;83.30;;;;;;5091494;28;20193;-74
2023/10/30 05:08:10;;;;;;;6.03;2.90;;;7.50;83.90;;;;;;5091751;28;20736;-75
2023/10/30 05:10:39;;;;;;;5.28;2.88;;;7.50;83.70;;;;;;5092270;28;20194;-74
2023/10/30 05:13:06;;;;;;;6.00;3.20;;;7.40;83.50;;;;;;5092434;28;20310;-75
2023/10/30 05:15:35;;;;;;;6.70;3.50;;;7.40;83.90;;;;;;5092154;28;20194;-74
2023/10/30 05:18:02;;;;;;;5.88;3.70;;;7.30;83.80;;;;;;5092353;28;20250;-76
2023/10/30 05:20:29;;;;;;;5.60;3.20;;;7.30;84.70;;;;;;5091749;28;20912;-74
2023/10/30 05:22:56;;;;;;;7.57;4.40;;;7.30;85.20;;;;;;5092320;28;20182;-74
2023/10/30 05:25:23;;;;;;;7.03;3.03;;;7.30;85.60;;;;;;5090813;28;20182;-75
2023/10/30 05:27:50;;;;;;;4.10;2.65;;;7.30;85.40;;;;;;5095536;28;20213;-75
2023/10/30 05:30:18;;;;;;;5.25;3.25;;;7.30;84.50;;;;;;5095917;28;20243;-74
2023/10/30 05:32:46;;;;;;;4.82;3.10;;;7.30;84.20;;;;;;5075760;28;20281;-75
2023/10/30 05:35:14;;;;;;;5.07;3.42;;;7.20;84.10;;;;;;5083454;28;20186;-74
2023/10/30 05:37:41;;;;;;;5.93;3.40;;;7.20;84.30;;;;;;5096191;28;20200;-75
2023/10/30 05:40:09;;;;;;;6.40;3.22;;;7.20;84.80;;;;;;5095990;28;20198;-75
2023/10/30 05:42:36;;;;;;;4.18;3.10;;;7.20;85.60;;;;;;5095249;28;20198;-75
2023/10/30 05:45:04;;;;;;;4.95;3.20;;;7.20;86.40;;;;;;5095562;28;20551;-74
2023/10/30 05:47:31;;;;;;;5.88;3.60;;;7.20;85.80;;;;;;5095178;28;20182;-74
2023/10/30 05:50:00;;;;;;;4.10;2.47;;;7.10;84.90;;;;;;5095008;28;20197;-75
2023/10/30 05:52:29;;;;;;;4.95;2.97;;;7.10;85.20;;;;;;5094852;28;20190;-74
2023/10/30 05:54:56;;;;;;;4.93;2.60;;;7.10;84.90;;;;;;5095137;28;20189;-75
2023/10/30 05:57:23;;;;;;;6.55;3.20;;;7.10;84.40;;;;;;5095696;28;20190;-75
2023/10/30 05:59:50;;;;;;;4.25;2.72;;;7.00;84.10;;;;;;5094302;28;20228;-75
2023/10/30 06:02:17;;;;;;;6.93;3.65;;;7.10;84.90;;;;;;5094832;28;20781;-75
2023/10/30 06:04:44;;;;;;;4.88;3.50;;;7.10;84.70;;;;;;5094726;28;20235;-74
2023/10/30 06:07:12;;;;;;;7.32;4.68;;;7.00;84.40;;;;;;5094549;28;20231;-75
2023/10/30 06:09:39;;;;;;;7.03;2.90;;;7.00;85.00;;;;;;5094338;28;20205;-75
2023/10/30 06:12:08;;;;;;;8.70;4.30;;;7.10;85.30;;;;;;5094873;28;20243;-75
2023/10/30 06:14:35;;;;;;;7.40;4.43;;;7.10;85.30;;;;;;5094405;28;20186;-74
2023/10/30 06:17:02;;;;;;;5.65;3.40;;;7.10;85.60;;;;;;5095395;28;20258;-75
2023/10/30 06:19:29;;;;;;;5.97;4.18;;;7.10;84.90;;;;;;5094965;28;20255;-74
2023/10/30 06:21:56;;;;;;;10.40;4.10;;;7.10;85.20;;;;;;5094922;28;20186;-74
2023/10/30 06:24:24;;;;;;;7.97;5.20;;;7.10;85.80;;;;;;5094474;28;20243;-75
2023/10/30 06:26:52;;;;;;;8.43;5.53;;;7.20;86.00;;;;;;5094355;28;20282;-75
2023/10/30 06:29:19;;;;;;;8.43;6.90;;;7.20;85.90;;;;;;5094791;28;20274;-75
2023/10/30 06:31:46;;;;;;;8.55;7.65;;;7.40;86.80;;;;;;5094484;28;20193;-74
2023/10/30 06:34:13;;;;;;;10.32;7.40;;;7.70;87.50;;;;;;5094187;28;20272;-75
2023/10/30 06:36:40;;;;;;;13.77;8.73;;;8.10;86.80;;;;;;5094504;28;20188;-75
2023/10/30 06:39:07;;;;;;;8.75;7.60;;;8.50;85.90;;;;;;5093879;28;20189;-75
2023/10/30 06:41:36;;;;;;;8.60;5.93;;;8.90;84.40;;;;;;5094639;28;20270;-75
2023/10/30 06:44:03;;;;;;;9.18;6.72;;;9.20;82.10;;;;;;5094071;28;20193;-75
2023/10/30 06:46:30;;;;;;;8.00;6.53;;;9.40;80.00;;;;;;5094014;28;20607;-75
2023/10/30 06:48:57;;;;;;;8.63;5.28;;;9.40;78.60;;;;;;5093509;28;20224;-75
2023/10/30 06:51:24;;;;;;;7.88;4.05;;;9.40;77.30;;;;;;5093132;28;20186;-75
2023/10/30 06:53:52;;;;;;;6.82;4.18;;;9.50;76.20;;;;;;5089010;28;20189;-75
2023/10/30 06:56:19;;;;;;;7.57;4.70;;;9.60;75.90;;;;;;5073190;28;20599;-75
2023/10/30 06:58:47;;;;;;;5.93;4.00;;;9.60;75.80;;;;;;5073411;28;20698;-75
2023/10/30 07:01:18;;;;;;;5.10;3.47;;;9.70;75.70;;;;;;5085666;28;20243;-75
2023/10/30 07:03:45;;;;;;;5.38;3.25;;;9.80;75.70;;;;;;5093883;28;20182;-75
2023/10/30 07:06:12;;;;;;;5.82;3.25;;;10.00;74.40;;;;;;5094307;28;20185;-75
2023/10/30 07:08:39;;;;;;;11.45;3.20;;;10.20;73.20;;;;;;5093696;28;20266;-75
2023/10/30 07:11:08;;;;;;;5.50;3.35;;;10.40;73.20;;;;;;5093704;28;20189;-75
2023/10/30 07:13:35;;;;;;;7.68;3.00;;;10.50;71.50;;;;;;5093757;28;20264;-75
2023/10/30 07:16:04;;;;;;;7.78;4.70;;;10.80;71.50;;;;;;5093619;28;20247;-75
2023/10/30 07:18:31;;;;;;;9.07;4.70;;;11.00;70.90;;;;;;5091932;28;20250;-75
2023/10/30 07:21:00;;;;;;;11.80;7.05;;;11.30;69.80;;;;;;5090072;28;20221;-75
2023/10/30 07:23:27;;;;;;;10.30;7.18;;;11.40;68.40;;;;;;5091941;28;20185;-76
2023/10/30 07:25:54;;;;;;;9.90;4.30;;;11.50;68.20;;;;;;5093810;28;20192;-75
2023/10/30 07:28:21;;;;;;;10.60;4.57;;;11.60;67.70;;;;;;5093629;28;20178;-75
2023/10/30 07:30:48;;;;;;;5.45;4.30;;;11.80;67.90;;;;;;5093358;28;20238;-75
2023/10/30 07:33:17;;;;;;;7.00;3.60;;;11.90;66.00;;;;;;5094418;28;20815;-75
2023/10/30 07:35:45;;;;;;;4.93;3.05;;;11.90;66.80;;;;;;5094184;28;20535;-75
2023/10/30 07:38:11;;;;;;;4.28;3.20;;;12.10;67.00;;;;;;5094311;28;20190;-75
2023/10/30 07:40:39;;;;;;;5.97;3.40;;;12.40;66.00;;;;;;5094258;28;20648;-75
2023/10/30 07:43:05;;;;;;;4.85;3.72;;;12.80;64.50;;;;;;5094058;28;20246;-75
2023/10/30 07:45:33;;;;;;;6.50;4.10;;;13.10;64.10;;;;;;5094329;28;20193;-75
2023/10/30 07:48:00;;;;;;;9.33;5.83;;;13.50;62.90;;;;;;5094223;28;20855;-75
2023/10/30 07:50:28;;;;;;;6.60;4.47;;;13.90;60.70;;;;;;5093359;28;20518;-76
2023/10/30 07:52:55;;;;;;;6.17;4.40;;;14.10;60.70;;;;;;5093795;28;20463;-76
2023/10/30 07:55:22;;;;;;;4.30;2.97;;;14.40;59.60;;;;;;5094114;28;20447;-75
2023/10/30 07:57:49;;;;;;;6.20;3.10;;;14.60;58.10;;;;;;5093771;28;20470;-75
2023/10/30 08:00:17;;;;;;;4.20;3.00;;;14.70;58.00;;;;;;5093696;28;20926;-75
2023/10/30 08:02:46;;;;;;;5.73;3.20;;;14.80;57.50;;;;;;5093996;28;20538;-76
2023/10/30 08:05:13;;;;;;;4.10;2.50;;;15.10;57.10;;;;;;5093904;28;20527;-76
2023/10/30 08:07:45;;;;;;;3.70;2.87;;;15.40;56.40;;;;;;5093857;28;20786;-76
2023/10/30 08:10:12;;;;;;;5.13;2.37;;;15.60;56.40;;;;;;5093424;28;20972;-76
2023/10/30 08:12:40;;;;;;;5.60;2.70;;;16.00;56.20;;;;;;5093819;28;20806;-76
2023/10/30 08:15:08;;;;;;;4.17;2.83;;;16.30;54.80;;;;;;5093632;28;20468;-76
2023/10/30 08:17:35;;;;;;;7.23;3.03;;;16.40;53.90;;;;;;5093788;28;20436;-76
2023/10/30 08:20:03;;;;;;;7.10;4.80;;;16.50;54.10;;;;;;5093419;28;21050;-75
2023/10/30 08:22:33;;;;;;;6.27;3.97;;;16.80;54.10;;;;;;5093613;28;20462;-76
2023/10/30 08:25:02;;;;;;;6.00;3.90;;;17.20;53.90;;;;;;5093635;28;20434;-76
2023/10/30 08:27:29;;;;;;;6.40;3.53;;;17.50;53.20;;;;;;5093366;28;20475;-76
2023/10/30 08:29:56;;;;;;;4.77;3.23;;;17.90;51.60;;;;;;5093591;28;20555;-76
2023/10/30 08:32:25;;;;;;;3.83;2.70;;;18.40;51.00;;;;;;5093622;28;20846;-76
2023/10/30 08:34:54;;;;;;;3.60;2.27;;;18.80;49.20;;;;;;5093809;28;20501;-76
2023/10/30 08:37:21;;;;;;;5.00;2.77;;;19.30;49.40;;;;;;5093280;28;20431;-76
2023/10/30 08:39:54;;;;;;;5.00;2.13;;;20.10;49.10;;;;;;5093164;28;20467;-77
2023/10/30 08:42:23;;;;;;;4.60;2.80;;;20.90;47.30;;;;;;5093231;28;20477;-76
2023/10/30 08:44:52;;;;;;;4.23;2.00;;;21.60;45.30;;;;;;5093169;28;20439;-77
2023/10/30 08:47:21;;;;;;;8.90;3.00;;;22.10;43.00;;;;;;5093468;28;20640;-76
2023/10/30 08:49:48;;;;;;;3.63;2.53;;;22.90;42.70;;;;;;5093479;28;20554;-76
2023/10/30 08:52:15;;;;;;;3.80;2.23;;;23.80;41.90;;;;;;5093460;28;20439;-76
2023/10/30 08:54:43;;;;;;;4.80;2.67;;;24.50;39.70;;;;;;5093565;28;20501;-76
2023/10/30 08:57:10;;;;;;;4.03;2.67;;;24.70;38.80;;;;;;5092982;28;20514;-76
2023/10/30 08:59:40;;;;;;;4.70;2.60;;;24.70;37.40;;;;;;5093230;28;20440;-76
2023/10/30 09:02:07;;;;;;;3.90;2.70;;;24.70;36.00;;;;;;5096501;28;20436;-76
2023/10/30 09:04:34;;;;;;;5.10;2.87;;;24.60;36.00;;;;;;5097520;28;20427;-76
2023/10/30 09:07:01;;;;;;;5.43;2.90;;;24.40;35.60;;;;;;5097126;28;20471;-76
2023/10/30 09:09:28;;;;;;;3.77;2.50;;;24.50;35.10;;;;;;5097426;28;20463;-78
2023/10/30 09:11:56;;;;;;;4.80;2.77;;;24.60;34.90;;;;;;5097304;28;20436;-76
2023/10/30 09:14:23;;;;;;;4.17;1.73;;;24.60;34.60;;;;;;5097317;28;20431;-76
2023/10/30 09:16:52;;;;;;;3.83;2.23;;;24.60;35.40;;;;;;5096970;28;20467;-76
2023/10/30 09:19:22;;;;;;;3.53;2.03;;;24.50;34.30;;;;;;5096990;28;20471;-76
2023/10/30 09:21:49;;;;;;;3.33;2.00;;;24.60;35.00;;;;;;5097169;28;20431;-76
2023/10/30 09:24:17;;;;;;;4.10;1.83;;;24.80;34.90;;;;;;5097011;28;20436;-76
2023/10/30 09:26:44;;;;;;;4.53;1.70;;;24.80;34.00;;;;;;5096844;28;20432;-76
2023/10/30 09:29:13;;;;;;;3.77;1.67;;;24.60;34.20;;;;;;5096825;28;20475;-76
2023/10/30 09:31:40;;;;;;;2.97;1.80;;;24.50;34.50;;;;;;5096880;28;20428;-75
2023/10/30 09:34:09;;;;;;;8.23;1.63;;;24.20;34.40;;;;;;5096877;28;20786;-76
2023/10/30 09:36:36;;;;;;;3.97;1.80;;;23.90;34.50;;;;;;5097168;28;20437;-76
2023/10/30 09:39:03;;;;;;;3.83;2.00;;;23.60;34.70;;;;;;5096768;28;20588;-76
2023/10/30 09:41:33;;;;;;;4.10;2.07;;;23.10;35.90;;;;;;5096643;28;20501;-76
2023/10/30 09:44:01;;;;;;;7.43;1.73;;;22.70;36.60;;;;;;5096428;28;20508;-76
2023/10/30 09:46:30;;;;;;;2.80;1.70;;;22.60;38.40;;;;;;5096836;28;20530;-76
2023/10/30 09:49:00;;;;;;;4.10;1.33;;;23.10;38.40;;;;;;5096273;28;20440;-76
2023/10/30 09:51:31;;;;;;;3.17;1.33;;;24.20;37.50;;;;;;5096283;28;20942;-77
2023/10/30 09:54:02;;;;;;;2.60;1.33;;;25.80;34.50;;;;;;5096509;28;20416;-76
2023/10/30 09:56:35;;;;;;;3.37;1.50;;;26.50;33.30;;;;;;5096141;28;20476;-76
2023/10/30 09:59:04;;;;;;;4.10;1.97;;;26.50;32.00;;;;;;5096166;28;20458;-76
2023/10/30 10:01:31;;;;;;;4.20;1.90;;;26.60;31.10;;;;;;5096543;28;20504;-76
2023/10/30 10:03:58;;;;;;;6.23;1.77;;;27.20;31.70;;;;;;5096320;28;20443;-76
2023/10/30 10:06:28;;;;;;;2.77;1.37;;;28.30;30.40;;;;;;5096396;28;20438;-76
2023/10/30 10:08:57;;;;;;;4.30;1.60;;;29.20;29.60;;;;;;5095835;28;20439;-76
2023/10/30 10:11:31;;;;;;;4.00;1.90;;;30.20;28.00;;;;;;5095981;28;20934;-77
2023/10/30 10:13:58;;;;;;;2.67;1.30;;;30.60;26.90;;;;;;5094895;28;20951;-77
2023/10/30 10:16:29;;;;;;;3.40;1.80;;;30.50;26.40;;;;;;5096203;28;20850;-76
2023/10/30 10:18:56;;;;;;;3.33;1.50;;;30.00;26.40;;;;;;5095858;28;20461;-76
2023/10/30 10:21:23;;;;;;;3.23;1.70;;;29.20;26.40;;;;;;5095717;28;20435;-76
2023/10/30 10:23:50;;;;;;;4.30;1.80;;;28.30;27.30;;;;;;5095604;28;20451;-78
2023/10/30 10:26:18;;;;;;;4.13;1.50;;;27.70;29.00;;;;;;5095514;28;20481;-76
2023/10/30 10:28:47;;;;;;;3.27;2.00;;;28.20;30.40;;;;;;5095511;28;20467;-76
2023/10/30 10:31:15;;;;;;;9.20;1.73;;;29.30;28.60;;;;;;5095317;28;20475;-77
2023/10/30 10:33:47;;;;;;;3.50;1.47;;;29.40;28.20;;;;;;5095326;28;20432;-76
2023/10/30 10:36:14;;;;;;;5.13;2.00;;;28.90;28.30;;;;;;5095716;28;20469;-76
2023/10/30 10:38:57;;;;;;;3.47;1.80;;;28.00;29.20;;;;;;5095872;28;20442;-76
2023/10/30 10:41:26;;;;;;;3.00;1.50;;;27.00;29.80;;;;;;5095648;28;20462;-76
2023/10/30 10:43:55;;;;;;;5.23;1.37;;;26.10;30.90;;;;;;5095539;28;20443;-75
2023/10/30 10:46:22;;;;;;;2.97;1.47;;;25.40;32.60;;;;;;5095191;28;20861;-76
2023/10/30 10:48:49;;;;;;;4.80;1.70;;;24.60;33.50;;;;;;5095452;28;20427;-76
2023/10/30 10:51:23;;;;;;;4.27;1.30;;;24.00;34.80;;;;;;5095372;28;20464;-76
2023/10/30 10:53:51;;;;;;;3.40;1.40;;;23.40;35.80;;;;;;5095435;28;20748;-76
2023/10/30 10:56:20;;;;;;;2.93;1.60;;;22.80;37.20;;;;;;5095298;28;20809;-76
2023/10/30 10:59:04;;;;;;;3.27;1.73;;;22.30;38.00;;;;;;5095078;28;20486;-76
2023/10/30 11:01:36;;;;;;;5.63;1.97;;;21.80;38.90;;;;;;5094996;28;20986;-76
2023/10/30 11:04:04;;;;;;;4.00;2.03;;;21.20;39.70;;;;;;5094883;28;20420;-76
2023/10/30 11:06:38;;;;;;;3.17;1.50;;;20.80;41.00;;;;;;5095225;28;20440;-76
2023/10/30 11:09:11;;;;;;;3.70;1.70;;;20.40;42.30;;;;;;5094796;28;20415;-76
2023/10/30 11:11:48;;;;;;;3.10;1.57;;;20.10;43.10;;;;;;5094826;28;20595;-76
2023/10/30 11:14:25;;;;;;;2.83;1.70;;;19.80;43.90;;;;;;5095061;28;20465;-76
2023/10/30 11:17:00;;;;;;;3.60;1.60;;;20.30;45.10;;;;;;5094891;28;20428;-76
2023/10/30 11:19:28;;;;;;;4.70;1.90;;;21.60;43.60;;;;;;5094618;28;20490;-76
2023/10/30 11:21:55;;;;;;;3.23;1.57;;;22.70;42.00;;;;;;5094510;28;20439;-76
2023/10/30 11:24:39;;;;;;;3.23;1.90;;;23.10;40.80;;;;;;5094689;28;20523;-76
2023/10/30 11:27:38;;;;;;;3.53;1.50;;;23.10;40.00;;;;;;5094582;28;20948;-76
2023/10/30 11:30:10;;;;;;;4.60;1.67;;;23.00;39.80;;;;;;5032219;28;20474;-76
2023/10/30 11:32:52;;;;;;;3.13;1.60;;;22.90;40.00;;;;;;5042286;28;20443;-75
2023/10/30 11:35:22;;;;;;;4.67;1.73;;;22.70;40.10;;;;;;5091453;28;20937;-76
2023/10/30 11:37:49;;;;;;;8.13;1.60;;;22.50;40.30;;;;;;5093561;28;20431;-76
2023/10/30 11:40:16;;;;;;;6.07;1.37;;;22.10;41.10;;;;;;5094023;28;20802;-76
2023/10/30 11:42:43;;;;;;;4.23;1.70;;;21.70;42.00;;;;;;5094521;28;20431;-76
2023/10/30 11:45:30;;;;;;;3.47;1.87;;;21.30;42.80;;;;;;5094413;28;20500;-76
2023/10/30 11:47:59;;;;;;;3.50;2.27;;;21.00;43.00;;;;;;5094967;28;20427;-76
2023/10/30 11:50:28;;;;;;;3.90;2.00;;;20.70;43.80;;;;;;5094081;28;20507;-76
2023/10/30 11:53:06;;;;;;;3.20;1.57;;;20.50;44.40;;;;;;5094416;28;20462;-76
2023/10/30 11:55:34;;;;;;;3.50;1.50;;;20.30;45.10;;;;;;5093909;28;20416;-76
2023/10/30 11:58:01;;;;;;;4.27;2.33;;;20.10;45.70;;;;;;5093840;28;20435;-76
2023/10/30 12:00:30;;;;;;;3.30;1.90;;;19.90;46.50;;;;;;5094193;28;20467;-76
2023/10/30 12:02:57;;;;;;;4.50;1.87;;;19.70;47.00;;;;;;5093700;28;20471;-76
2023/10/30 12:05:26;;;;;;;4.57;1.70;;;19.40;47.60;;;;;;5091135;28;20543;-76
2023/10/30 12:07:53;;;;;;;4.37;2.23;;;19.20;48.30;;;;;;5093575;28;20934;-76
2023/10/30 12:10:20;;;;;;;3.67;2.10;;;19.00;48.60;;;;;;5092577;28;20464;-76
2023/10/30 12:12:48;;;;;;;3.43;1.70;;;18.80;49.30;;;;;;5093294;28;20436;-76
2023/10/30 12:15:15;;;;;;;4.43;2.33;;;18.60;50.40;;;;;;5093484;28;20439;-76
2023/10/30 12:17:43;;;;;;;3.50;1.90;;;18.40;51.00;;;;;;5093168;28;20432;-75
2023/10/30 12:20:11;;;;;;;4.67;2.00;;;18.20;51.40;;;;;;5093318;28;20521;-76
2023/10/30 12:22:41;;;;;;;4.40;1.90;;;18.10;52.30;;;;;;5091139;28;20489;-76
2023/10/30 12:25:15;;;;;;;4.80;2.30;;;17.90;52.70;;;;;;5093106;28;20424;-76
2023/10/30 12:27:43;;;;;;;4.47;2.40;;;17.80;53.30;;;;;;5091948;28;20481;-75
2023/10/30 12:30:11;;;;;;;3.60;1.80;;;17.70;53.80;;;;;;5092741;28;20506;-75
2023/10/30 12:32:38;;;;;;;4.63;2.20;;;17.60;54.50;;;;;;5093612;28;20489;-75
2023/10/30 12:35:11;;;;;;;4.40;2.33;;;17.50;55.10;;;;;;5090124;28;20432;-75
2023/10/30 12:37:39;;;;;;;4.70;2.60;;;17.40;55.30;;;;;;5093339;28;20436;-75
2023/10/30 12:40:08;;;;;;;13.20;2.87;;;17.20;56.10;;;;;;5093142;28;20444;-75
2023/10/30 12:42:36;;;;;;;5.37;2.63;;;17.10;56.60;;;;;;5092673;28;20444;-75
2023/10/30 12:45:06;;;;;;;4.30;2.90;;;17.00;56.70;;;;;;5092755;28;20443;-75
2023/10/30 12:47:33;;;;;;;4.47;2.70;;;16.90;57.30;;;;;;5092574;28;20816;-75
2023/10/30 12:50:00;;;;;;;4.57;2.87;;;16.90;58.30;;;;;;5092858;28;20436;-75
2023/10/30 12:52:29;;;;;;;4.50;3.00;;;16.80;58.70;;;;;;5091671;28;20428;-75
2023/10/30 12:54:56;;;;;;;7.43;2.73;;;16.70;59.50;;;;;;5093495;28;20844;-75
2023/10/30 12:57:23;;;;;;;9.20;2.90;;;16.70;60.10;;;;;;5092617;28;20443;-75
2023/10/30 12:59:50;;;;;;;2.50;1.43;;;16.70;61.10;;;;;;5092984;28;20914;-75